sensor_id;sensor_type;location;lat;lon;timestamp;pressure;altitude;pressure_sealevel;temperature;humidity
78835;BME280;68187;42.682;23.352;2023-06-22T00:02:22;95581.28;;;18.21;76.44
78835;BME280;68187;42.682;23.352;2023-06-22T00:04:49;95573.69;;;18.15;76.19
78835;BME280;68187;42.682;23.352;2023-06-22T00:07:16;95582.69;;;18.19;76.66
78835;BME280;68187;42.682;23.352;2023-06-22T00:09:42;95565.41;;;18.03;76.80
78835;BME280;68187;42.682;23.352;2023-06-22T00:12:09;95581.00;;;18.09;77.18
78835;BME280;68187;42.682;23.352;2023-06-22T00:14:36;95585.94;;;18.16;76.84
78835;BME280;68187;42.682;23.352;2023-06-22T00:17:03;95583.38;;;18.11;76.52
78835;BME280;68187;42.682;23.352;2023-06-22T00:19:33;95579.84;;;18.02;76.73
78835;BME280;68187;42.682;23.352;2023-06-22T00:22:00;95568.56;;;17.91;77.00
78835;BME280;68187;42.682;23.352;2023-06-22T00:24:28;95563.06;;;17.88;77.00
78835;BME280;68187;42.682;23.352;2023-06-22T00:26:55;95568.88;;;17.90;77.09
78835;BME280;68187;42.682;23.352;2023-06-22T00:29:22;95553.75;;;17.85;77.20
78835;BME280;68187;42.682;23.352;2023-06-22T00:31:51;95519.72;;;17.63;77.86
78835;BME280;68187;42.682;23.352;2023-06-22T00:34:18;95551.34;;;17.83;77.66
78835;BME280;68187;42.682;23.352;2023-06-22T00:36:46;95555.41;;;17.81;77.85
78835;BME280;68187;42.682;23.352;2023-06-22T00:39:13;95558.09;;;17.81;77.73
78835;BME280;68187;42.682;23.352;2023-06-22T00:41:40;95551.78;;;17.77;77.58
78835;BME280;68187;42.682;23.352;2023-06-22T00:44:07;95558.88;;;17.81;77.43
78835;BME280;68187;42.682;23.352;2023-06-22T00:46:34;95551.88;;;17.72;77.52
78835;BME280;68187;42.682;23.352;2023-06-22T00:49:01;95550.78;;;17.73;77.04
78835;BME280;68187;42.682;23.352;2023-06-22T00:51:30;95535.38;;;17.56;77.67
78835;BME280;68187;42.682;23.352;2023-06-22T00:53:58;95551.69;;;17.68;77.80
78835;BME280;68187;42.682;23.352;2023-06-22T00:56:25;95538.34;;;17.55;77.63
78835;BME280;68187;42.682;23.352;2023-06-22T00:58:55;95540.44;;;17.58;77.85
78835;BME280;68187;42.682;23.352;2023-06-22T01:01:22;95544.47;;;17.55;77.60
78835;BME280;68187;42.682;23.352;2023-06-22T01:03:50;95554.38;;;17.55;77.73
78835;BME280;68187;42.682;23.352;2023-06-22T01:06:28;95566.44;;;17.52;78.00
78835;BME280;68187;42.682;23.352;2023-06-22T01:09:08;95573.13;;;17.50;78.44
78835;BME280;68187;42.682;23.352;2023-06-22T01:11:44;95565.63;;;17.52;78.65
78835;BME280;68187;42.682;23.352;2023-06-22T01:14:15;95554.75;;;17.48;78.32
78835;BME280;68187;42.682;23.352;2023-06-22T01:16:44;95544.06;;;17.35;78.82
78835;BME280;68187;42.682;23.352;2023-06-22T01:19:27;95567.50;;;17.51;79.06
78835;BME280;68187;42.682;23.352;2023-06-22T01:21:56;95577.19;;;17.47;79.04
78835;BME280;68187;42.682;23.352;2023-06-22T01:24:27;95579.84;;;17.47;79.56
78835;BME280;68187;42.682;23.352;2023-06-22T01:27:04;95573.81;;;17.42;79.43
78835;BME280;68187;42.682;23.352;2023-06-22T01:29:36;95575.22;;;17.39;79.30
78835;BME280;68187;42.682;23.352;2023-06-22T01:32:05;95579.25;;;17.37;79.65
78835;BME280;68187;42.682;23.352;2023-06-22T01:34:33;95571.81;;;17.34;79.74
78835;BME280;68187;42.682;23.352;2023-06-22T01:37:01;95582.72;;;17.37;79.69
78835;BME280;68187;42.682;23.352;2023-06-22T01:39:29;95581.13;;;17.36;79.49
78835;BME280;68187;42.682;23.352;2023-06-22T01:41:57;95584.09;;;17.35;79.81
78835;BME280;68187;42.682;23.352;2023-06-22T01:44:24;95576.69;;;17.32;79.89
78835;BME280;68187;42.682;23.352;2023-06-22T01:46:53;95584.91;;;17.35;79.56
78835;BME280;68187;42.682;23.352;2023-06-22T01:49:20;95591.31;;;17.34;79.72
78835;BME280;68187;42.682;23.352;2023-06-22T01:51:47;95578.56;;;17.31;79.71
78835;BME280;68187;42.682;23.352;2023-06-22T01:54:14;95575.88;;;17.18;80.13
78835;BME280;68187;42.682;23.352;2023-06-22T01:56:40;95583.09;;;17.17;80.13
78835;BME280;68187;42.682;23.352;2023-06-22T01:59:11;95596.25;;;17.27;80.42
78835;BME280;68187;42.682;23.352;2023-06-22T02:01:43;95579.03;;;17.20;80.21
78835;BME280;68187;42.682;23.352;2023-06-22T02:04:19;95599.41;;;17.29;80.21
78835;BME280;68187;42.682;23.352;2023-06-22T02:06:47;95596.25;;;17.27;80.05
78835;BME280;68187;42.682;23.352;2023-06-22T02:09:19;95597.84;;;17.28;79.89
78835;BME280;68187;42.682;23.352;2023-06-22T02:11:48;95606.75;;;17.24;79.98
78835;BME280;68187;42.682;23.352;2023-06-22T02:14:17;95601.41;;;17.24;80.35
78835;BME280;68187;42.682;23.352;2023-06-22T02:16:46;95598.50;;;17.20;80.50
78835;BME280;68187;42.682;23.352;2023-06-22T02:19:14;95594.28;;;17.19;80.35
78835;BME280;68187;42.682;23.352;2023-06-22T02:21:43;95580.22;;;17.13;80.24
78835;BME280;68187;42.682;23.352;2023-06-22T02:24:10;95579.81;;;17.06;80.33
78835;BME280;68187;42.682;23.352;2023-06-22T02:26:37;95588.59;;;17.07;80.35
78835;BME280;68187;42.682;23.352;2023-06-22T02:29:05;95570.69;;;16.94;80.19
78835;BME280;68187;42.682;23.352;2023-06-22T02:31:32;95586.75;;;17.07;80.51
78835;BME280;68187;42.682;23.352;2023-06-22T02:33:59;95580.59;;;17.07;80.77
78835;BME280;68187;42.682;23.352;2023-06-22T02:36:27;95575.34;;;17.02;80.49
78835;BME280;68187;42.682;23.352;2023-06-22T02:38:56;95581.19;;;17.04;80.87
78835;BME280;68187;42.682;23.352;2023-06-22T02:41:26;95598.00;;;17.04;80.60
78835;BME280;68187;42.682;23.352;2023-06-22T02:43:53;95568.59;;;16.91;80.39
78835;BME280;68187;42.682;23.352;2023-06-22T02:46:20;95584.22;;;16.97;80.44
78835;BME280;68187;42.682;23.352;2023-06-22T02:48:50;95592.47;;;17.01;80.57
78835;BME280;68187;42.682;23.352;2023-06-22T02:51:17;95597.00;;;17.00;80.66
78835;BME280;68187;42.682;23.352;2023-06-22T02:53:45;95595.41;;;16.99;80.79
78835;BME280;68187;42.682;23.352;2023-06-22T02:56:12;95595.41;;;16.99;80.99
78835;BME280;68187;42.682;23.352;2023-06-22T02:58:39;95593.53;;;17.00;80.80
78835;BME280;68187;42.682;23.352;2023-06-22T03:01:06;95586.72;;;16.94;80.37
78835;BME280;68187;42.682;23.352;2023-06-22T03:03:32;95600.53;;;16.96;80.49
78835;BME280;68187;42.682;23.352;2023-06-22T03:05:59;95594.91;;;16.97;80.46
78835;BME280;68187;42.682;23.352;2023-06-22T03:08:27;95536.09;;;16.57;80.24
78835;BME280;68187;42.682;23.352;2023-06-22T03:10:55;95601.91;;;16.93;80.27
78835;BME280;68187;42.682;23.352;2023-06-22T03:13:23;95603.53;;;16.94;80.65
78835;BME280;68187;42.682;23.352;2023-06-22T03:15:50;95616.25;;;16.97;80.01
78835;BME280;68187;42.682;23.352;2023-06-22T03:18:18;95602.50;;;16.90;80.24
78835;BME280;68187;42.682;23.352;2023-06-22T03:20:44;95618.03;;;17.02;80.61
78835;BME280;68187;42.682;23.352;2023-06-22T03:23:11;95621.50;;;17.02;80.34
78835;BME280;68187;42.682;23.352;2023-06-22T03:25:38;95630.91;;;17.00;80.87
78835;BME280;68187;42.682;23.352;2023-06-22T03:28:06;95626.34;;;17.00;81.12
78835;BME280;68187;42.682;23.352;2023-06-22T03:30:33;95621.59;;;16.97;81.28
78835;BME280;68187;42.682;23.352;2023-06-22T03:32:59;95630.00;;;17.04;81.35
78835;BME280;68187;42.682;23.352;2023-06-22T03:35:26;95618.03;;;17.02;81.26
78835;BME280;68187;42.682;23.352;2023-06-22T03:37:53;95615.00;;;17.08;80.88
78835;BME280;68187;42.682;23.352;2023-06-22T03:40:20;95632.94;;;17.22;80.82
78835;BME280;68187;42.682;23.352;2023-06-22T03:42:47;95632.22;;;17.16;80.53
78835;BME280;68187;42.682;23.352;2023-06-22T03:45:15;95627.47;;;17.13;80.53
78835;BME280;68187;42.682;23.352;2023-06-22T03:47:42;95621.84;;;17.15;80.92
78835;BME280;68187;42.682;23.352;2023-06-22T03:50:09;95644.81;;;17.29;81.01
78835;BME280;68187;42.682;23.352;2023-06-22T03:52:36;95637.91;;;17.28;80.57
78835;BME280;68187;42.682;23.352;2023-06-22T03:55:03;95641.75;;;17.36;79.73
78835;BME280;68187;42.682;23.352;2023-06-22T03:57:30;95645.72;;;17.38;78.72
78835;BME280;68187;42.682;23.352;2023-06-22T03:59:58;95639.38;;;17.34;78.54
78835;BME280;68187;42.682;23.352;2023-06-22T04:02:26;95645.13;;;17.41;78.40
78835;BME280;68187;42.682;23.352;2023-06-22T04:04:53;95648.22;;;17.48;78.72
78835;BME280;68187;42.682;23.352;2023-06-22T04:07:20;95653.56;;;17.48;78.61
78835;BME280;68187;42.682;23.352;2023-06-22T04:09:46;95657.59;;;17.46;78.82
78835;BME280;68187;42.682;23.352;2023-06-22T04:12:13;95647.91;;;17.50;78.43
78835;BME280;68187;42.682;23.352;2023-06-22T04:14:40;95645.22;;;17.50;78.63
78835;BME280;68187;42.682;23.352;2023-06-22T04:17:07;95642.28;;;17.51;78.34
78835;BME280;68187;42.682;23.352;2023-06-22T04:19:35;95643.72;;;17.62;78.55
78835;BME280;68187;42.682;23.352;2023-06-22T04:22:02;95631.03;;;17.68;77.75
78835;BME280;68187;42.682;23.352;2023-06-22T04:24:29;95630.16;;;17.72;78.04
78835;BME280;68187;42.682;23.352;2023-06-22T04:26:55;95618.88;;;17.75;79.07
78835;BME280;68187;42.682;23.352;2023-06-22T04:29:22;95609.16;;;17.79;77.96
78835;BME280;68187;42.682;23.352;2023-06-22T04:31:54;95624.28;;;17.98;77.30
78835;BME280;68187;42.682;23.352;2023-06-22T04:34:23;95623.09;;;18.04;76.92
78835;BME280;68187;42.682;23.352;2023-06-22T04:36:53;95624.59;;;18.10;76.73
78835;BME280;68187;42.682;23.352;2023-06-22T04:39:20;95623.78;;;18.09;76.87
78835;BME280;68187;42.682;23.352;2023-06-22T04:41:47;95615.94;;;18.13;75.79
78835;BME280;68187;42.682;23.352;2023-06-22T04:44:15;95622.28;;;18.30;75.13
78835;BME280;68187;42.682;23.352;2023-06-22T04:46:50;95595.06;;;18.15;75.60
78835;BME280;68187;42.682;23.352;2023-06-22T04:49:20;95611.44;;;18.35;74.67
78835;BME280;68187;42.682;23.352;2023-06-22T04:51:47;95622.75;;;18.46;74.09
78835;BME280;68187;42.682;23.352;2023-06-22T04:54:18;95630.06;;;18.54;74.75
78835;BME280;68187;42.682;23.352;2023-06-22T04:56:45;95591.84;;;18.26;74.43
78835;BME280;68187;42.682;23.352;2023-06-22T04:59:12;95586.94;;;18.20;74.29
78835;BME280;68187;42.682;23.352;2023-06-22T05:01:39;95631.22;;;18.62;74.10
78835;BME280;68187;42.682;23.352;2023-06-22T05:04:06;95587.09;;;18.37;73.72
78835;BME280;68187;42.682;23.352;2023-06-22T05:06:33;95629.00;;;18.77;73.37
78835;BME280;68187;42.682;23.352;2023-06-22T05:09:00;95637.63;;;18.96;73.04
78835;BME280;68187;42.682;23.352;2023-06-22T05:11:30;95602.59;;;18.84;71.30
78835;BME280;68187;42.682;23.352;2023-06-22T05:13:56;95583.81;;;18.76;71.22
78835;BME280;68187;42.682;23.352;2023-06-22T05:16:24;95611.28;;;19.12;70.09
78835;BME280;68187;42.682;23.352;2023-06-22T05:18:52;95583.34;;;19.04;69.44
78835;BME280;68187;42.682;23.352;2023-06-22T05:21:21;95633.28;;;19.31;69.76
78835;BME280;68187;42.682;23.352;2023-06-22T05:23:49;95638.63;;;19.31;69.77
78835;BME280;68187;42.682;23.352;2023-06-22T05:26:16;95635.25;;;19.39;69.42
78835;BME280;68187;42.682;23.352;2023-06-22T05:28:44;95603.41;;;19.15;70.14
78835;BME280;68187;42.682;23.352;2023-06-22T05:31:12;95632.59;;;19.48;69.95
78835;BME280;68187;42.682;23.352;2023-06-22T05:33:39;95633.56;;;19.52;68.96
78835;BME280;68187;42.682;23.352;2023-06-22T05:36:07;95647.91;;;19.56;67.99
78835;BME280;68187;42.682;23.352;2023-06-22T05:38:33;95650.81;;;19.68;67.92
78835;BME280;68187;42.682;23.352;2023-06-22T05:41:01;95657.00;;;19.77;67.75
78835;BME280;68187;42.682;23.352;2023-06-22T05:43:28;95628.56;;;19.59;67.26
78835;BME280;68187;42.682;23.352;2023-06-22T05:45:56;95667.81;;;19.94;67.28
78835;BME280;68187;42.682;23.352;2023-06-22T05:48:23;95603.66;;;19.58;67.47
78835;BME280;68187;42.682;23.352;2023-06-22T05:50:50;95643.69;;;19.94;66.90
78835;BME280;68187;42.682;23.352;2023-06-22T05:53:17;95667.41;;;20.18;66.60
78835;BME280;68187;42.682;23.352;2023-06-22T05:55:44;95656.03;;;20.12;66.00
78835;BME280;68187;42.682;23.352;2023-06-22T05:58:11;95647.53;;;20.19;64.96
78835;BME280;68187;42.682;23.352;2023-06-22T06:00:38;95664.16;;;20.29;64.92
78835;BME280;68187;42.682;23.352;2023-06-22T06:03:07;95612.66;;;20.10;64.93
78835;BME280;68187;42.682;23.352;2023-06-22T06:05:34;95663.09;;;20.47;66.32
78835;BME280;68187;42.682;23.352;2023-06-22T06:08:04;95657.44;;;20.57;63.97
78835;BME280;68187;42.682;23.352;2023-06-22T06:10:31;95654.13;;;20.69;63.23
78835;BME280;68187;42.682;23.352;2023-06-22T06:12:59;95604.84;;;20.39;63.57
78835;BME280;68187;42.682;23.352;2023-06-22T06:15:27;95607.84;;;20.63;63.75
78835;BME280;68187;42.682;23.352;2023-06-22T06:17:54;95616.06;;;20.76;63.44
78835;BME280;68187;42.682;23.352;2023-06-22T06:20:24;95638.00;;;20.95;63.53
78835;BME280;68187;42.682;23.352;2023-06-22T06:22:51;95629.63;;;20.96;63.58
78835;BME280;68187;42.682;23.352;2023-06-22T06:25:18;95632.47;;;21.08;63.93
78835;BME280;68187;42.682;23.352;2023-06-22T06:27:47;95639.69;;;21.33;63.17
78835;BME280;68187;42.682;23.352;2023-06-22T06:30:17;95645.84;;;21.43;63.17
78835;BME280;68187;42.682;23.352;2023-06-22T06:32:44;95602.56;;;21.27;62.96
78835;BME280;68187;42.682;23.352;2023-06-22T06:35:13;95629.03;;;21.63;62.60
78835;BME280;68187;42.682;23.352;2023-06-22T06:37:43;95607.72;;;21.58;62.99
78835;BME280;68187;42.682;23.352;2023-06-22T06:40:11;95637.19;;;21.83;62.40
78835;BME280;68187;42.682;23.352;2023-06-22T06:42:38;95624.97;;;21.94;61.21
78835;BME280;68187;42.682;23.352;2023-06-22T06:45:07;95617.78;;;22.07;60.33
78835;BME280;68187;42.682;23.352;2023-06-22T06:47:34;95631.38;;;22.11;60.23
78835;BME280;68187;42.682;23.352;2023-06-22T06:50:01;95620.47;;;22.07;59.89
78835;BME280;68187;42.682;23.352;2023-06-22T06:52:28;95628.50;;;22.16;60.54
78835;BME280;68187;42.682;23.352;2023-06-22T06:54:56;95624.38;;;22.18;60.46
78835;BME280;68187;42.682;23.352;2023-06-22T06:57:23;95622.47;;;22.19;60.91
78835;BME280;68187;42.682;23.352;2023-06-22T06:59:54;95622.31;;;22.15;62.03
78835;BME280;68187;42.682;23.352;2023-06-22T07:02:21;95613.84;;;22.05;61.77
78835;BME280;68187;42.682;23.352;2023-06-22T07:04:47;95617.47;;;22.09;61.68
78835;BME280;68187;42.682;23.352;2023-06-22T07:07:14;95624.44;;;22.10;63.03
78835;BME280;68187;42.682;23.352;2023-06-22T07:09:41;95628.50;;;22.16;62.54
78835;BME280;68187;42.682;23.352;2023-06-22T07:12:09;95630.16;;;22.29;62.50
78835;BME280;68187;42.682;23.352;2023-06-22T07:14:36;95621.47;;;22.52;63.10
78835;BME280;68187;42.682;23.352;2023-06-22T07:17:03;95616.56;;;22.75;59.81
78835;BME280;68187;42.682;23.352;2023-06-22T07:19:32;95620.81;;;22.97;59.11
78835;BME280;68187;42.682;23.352;2023-06-22T07:21:59;95590.41;;;22.96;58.54
78835;BME280;68187;42.682;23.352;2023-06-22T07:24:26;95599.75;;;23.11;59.04
78835;BME280;68187;42.682;23.352;2023-06-22T07:26:52;95605.25;;;23.35;58.56
78835;BME280;68187;42.682;23.352;2023-06-22T07:29:20;95614.59;;;23.50;58.70
78835;BME280;68187;42.682;23.352;2023-06-22T07:31:48;95601.56;;;23.52;57.53
78835;BME280;68187;42.682;23.352;2023-06-22T07:34:15;95602.03;;;23.66;57.66
78835;BME280;68187;42.682;23.352;2023-06-22T07:36:43;95610.25;;;23.81;56.87
78835;BME280;68187;42.682;23.352;2023-06-22T07:39:09;95606.91;;;23.84;55.52
78835;BME280;68187;42.682;23.352;2023-06-22T07:41:37;95627.50;;;24.01;56.65
78835;BME280;68187;42.682;23.352;2023-06-22T07:44:05;95616.78;;;24.04;56.48
78835;BME280;68187;42.682;23.352;2023-06-22T07:46:33;95608.25;;;24.02;56.20
78835;BME280;68187;42.682;23.352;2023-06-22T07:49:00;95609.97;;;24.19;57.09
78835;BME280;68187;42.682;23.352;2023-06-22T07:51:27;95614.53;;;24.31;55.17
78835;BME280;68187;42.682;23.352;2023-06-22T07:53:54;95619.25;;;24.46;56.39
78835;BME280;68187;42.682;23.352;2023-06-22T07:56:21;95614.16;;;24.56;56.47
78835;BME280;68187;42.682;23.352;2023-06-22T07:58:47;95609.84;;;24.67;57.07
78835;BME280;68187;42.682;23.352;2023-06-22T08:01:15;95595.47;;;24.63;54.73
78835;BME280;68187;42.682;23.352;2023-06-22T08:03:43;95601.75;;;24.67;54.01
78835;BME280;68187;42.682;23.352;2023-06-22T08:06:10;95601.31;;;24.65;55.31
78835;BME280;68187;42.682;23.352;2023-06-22T08:08:37;95599.25;;;24.74;55.24
78835;BME280;68187;42.682;23.352;2023-06-22T08:11:03;95588.81;;;24.73;53.70
78835;BME280;68187;42.682;23.352;2023-06-22T08:13:31;95589.34;;;24.91;51.65
78835;BME280;68187;42.682;23.352;2023-06-22T08:15:57;95591.75;;;25.08;50.85
78835;BME280;68187;42.682;23.352;2023-06-22T08:18:24;95571.78;;;25.12;51.08
78835;BME280;68187;42.682;23.352;2023-06-22T08:20:52;95580.84;;;25.20;50.22
78835;BME280;68187;42.682;23.352;2023-06-22T08:23:19;95571.16;;;25.03;51.93
78835;BME280;68187;42.682;23.352;2023-06-22T08:25:46;95564.25;;;25.06;52.41
78835;BME280;68187;42.682;23.352;2023-06-22T08:28:13;95577.31;;;25.31;52.54
78835;BME280;68187;42.682;23.352;2023-06-22T08:30:40;95569.22;;;25.47;53.38
78835;BME280;68187;42.682;23.352;2023-06-22T08:33:06;95576.31;;;25.67;51.39
78835;BME280;68187;42.682;23.352;2023-06-22T08:35:33;95570.19;;;25.70;50.60
78835;BME280;68187;42.682;23.352;2023-06-22T08:38:01;95575.78;;;25.62;51.35
78835;BME280;68187;42.682;23.352;2023-06-22T08:40:28;95571.75;;;25.56;52.48
78835;BME280;68187;42.682;23.352;2023-06-22T08:42:55;95586.50;;;25.58;51.78
78835;BME280;68187;42.682;23.352;2023-06-22T08:45:22;95586.63;;;25.62;50.82
78835;BME280;68187;42.682;23.352;2023-06-22T08:47:49;95582.25;;;25.57;50.33
78835;BME280;68187;42.682;23.352;2023-06-22T08:50:16;95580.16;;;25.51;50.00
78835;BME280;68187;42.682;23.352;2023-06-22T08:52:43;95582.50;;;25.52;50.60
78835;BME280;68187;42.682;23.352;2023-06-22T08:55:12;95571.31;;;25.69;50.54
78835;BME280;68187;42.682;23.352;2023-06-22T08:57:39;95568.03;;;25.91;51.83
78835;BME280;68187;42.682;23.352;2023-06-22T09:00:08;95569.75;;;26.15;54.19
78835;BME280;68187;42.682;23.352;2023-06-22T09:02:42;95559.31;;;26.33;52.24
78835;BME280;68187;42.682;23.352;2023-06-22T09:05:09;95556.75;;;26.40;47.64
78835;BME280;68187;42.682;23.352;2023-06-22T09:07:36;95561.03;;;26.41;46.87
78835;BME280;68187;42.682;23.352;2023-06-22T09:10:04;95563.19;;;26.51;50.78
78835;BME280;68187;42.682;23.352;2023-06-22T09:12:32;95557.63;;;26.63;50.81
78835;BME280;68187;42.682;23.352;2023-06-22T09:15:00;95560.06;;;26.68;47.87
78835;BME280;68187;42.682;23.352;2023-06-22T09:17:28;95562.16;;;26.74;46.09
78835;BME280;68187;42.682;23.352;2023-06-22T09:19:54;95565.38;;;26.80;44.83
78835;BME280;68187;42.682;23.352;2023-06-22T09:22:21;95560.81;;;26.84;47.33
78835;BME280;68187;42.682;23.352;2023-06-22T09:24:48;95556.22;;;26.88;48.56
78835;BME280;68187;42.682;23.352;2023-06-22T09:27:15;95551.66;;;26.92;46.12
78835;BME280;68187;42.682;23.352;2023-06-22T09:29:43;95568.50;;;27.01;46.38
78835;BME280;68187;42.682;23.352;2023-06-22T09:32:10;95559.28;;;27.06;47.84
78835;BME280;68187;42.682;23.352;2023-06-22T09:34:37;95546.88;;;27.05;49.90
78835;BME280;68187;42.682;23.352;2023-06-22T09:37:04;95576.75;;;27.27;47.47
78835;BME280;68187;42.682;23.352;2023-06-22T09:39:31;95564.03;;;27.31;48.34
78835;BME280;68187;42.682;23.352;2023-06-22T09:41:59;95570.47;;;27.42;46.82
78835;BME280;68187;42.682;23.352;2023-06-22T09:44:26;95560.94;;;27.52;46.86
78835;BME280;68187;42.682;23.352;2023-06-22T09:46:54;95555.13;;;27.53;44.79
78835;BME280;68187;42.682;23.352;2023-06-22T09:49:21;95558.06;;;27.64;45.38
78835;BME280;68187;42.682;23.352;2023-06-22T09:51:47;95551.16;;;27.70;43.88
78835;BME280;68187;42.682;23.352;2023-06-22T09:54:15;95548.94;;;27.76;45.51
78835;BME280;68187;42.682;23.352;2023-06-22T09:56:41;95546.28;;;27.79;45.66
78835;BME280;68187;42.682;23.352;2023-06-22T09:59:08;95540.47;;;27.81;46.63
78835;BME280;68187;42.682;23.352;2023-06-22T10:01:35;95543.94;;;27.78;46.49
78835;BME280;68187;42.682;23.352;2023-06-22T10:04:03;95532.97;;;27.71;47.37
78835;BME280;68187;42.682;23.352;2023-06-22T10:06:30;95513.34;;;27.58;46.27
78835;BME280;68187;42.682;23.352;2023-06-22T10:08:57;95534.28;;;27.80;47.52
78835;BME280;68187;42.682;23.352;2023-06-22T10:11:23;95533.00;;;27.74;46.49
78835;BME280;68187;42.682;23.352;2023-06-22T10:13:54;95534.69;;;27.82;48.06
78835;BME280;68187;42.682;23.352;2023-06-22T10:16:21;95527.63;;;27.78;41.40
78835;BME280;68187;42.682;23.352;2023-06-22T10:18:48;95526.19;;;27.84;42.66
78835;BME280;68187;42.682;23.352;2023-06-22T10:21:16;95513.81;;;27.86;41.69
78835;BME280;68187;42.682;23.352;2023-06-22T10:23:43;95505.69;;;27.90;43.27
78835;BME280;68187;42.682;23.352;2023-06-22T10:26:09;95515.19;;;27.99;42.37
78835;BME280;68187;42.682;23.352;2023-06-22T10:28:36;95514.53;;;27.83;42.85
78835;BME280;68187;42.682;23.352;2023-06-22T10:31:03;95514.97;;;27.63;43.20
78835;BME280;68187;42.682;23.352;2023-06-22T10:33:30;95527.22;;;27.76;45.00
78835;BME280;68187;42.682;23.352;2023-06-22T10:35:56;95520.06;;;27.90;45.12
78835;BME280;68187;42.682;23.352;2023-06-22T10:38:24;95498.41;;;27.94;45.60
78835;BME280;68187;42.682;23.352;2023-06-22T10:40:51;95518.13;;;28.13;44.97
78835;BME280;68187;42.682;23.352;2023-06-22T10:43:18;95505.84;;;28.23;43.31
78835;BME280;68187;42.682;23.352;2023-06-22T10:45:45;95512.22;;;28.38;44.40
78835;BME280;68187;42.682;23.352;2023-06-22T10:48:11;95517.81;;;28.48;44.73
78835;BME280;68187;42.682;23.352;2023-06-22T10:50:38;95510.16;;;28.57;44.94
78835;BME280;68187;42.682;23.352;2023-06-22T10:53:05;95511.84;;;28.65;40.13
78835;BME280;68187;42.682;23.352;2023-06-22T10:55:33;95502.78;;;28.58;40.74
78835;BME280;68187;42.682;23.352;2023-06-22T10:58:18;95499.81;;;28.66;43.74
78835;BME280;68187;42.682;23.352;2023-06-22T11:00:45;95496.34;;;28.69;42.29
78835;BME280;68187;42.682;23.352;2023-06-22T11:03:12;95507.00;;;28.85;41.43
78835;BME280;68187;42.682;23.352;2023-06-22T11:05:39;95506.72;;;28.93;41.68
78835;BME280;68187;42.682;23.352;2023-06-22T11:08:06;95509.84;;;28.95;40.84
78835;BME280;68187;42.682;23.352;2023-06-22T11:10:35;95490.41;;;28.93;40.10
78835;BME280;68187;42.682;23.352;2023-06-22T11:13:01;95468.59;;;28.86;39.56
78835;BME280;68187;42.682;23.352;2023-06-22T11:15:29;95503.06;;;29.16;41.35
78835;BME280;68187;42.682;23.352;2023-06-22T11:17:56;95495.34;;;29.18;38.96
78835;BME280;68187;42.682;23.352;2023-06-22T11:20:23;95491.50;;;29.22;40.55
78835;BME280;68187;42.682;23.352;2023-06-22T11:22:49;95484.19;;;29.30;41.57
78835;BME280;68187;42.682;23.352;2023-06-22T11:25:16;95461.22;;;29.27;38.99
78835;BME280;68187;42.682;23.352;2023-06-22T11:27:44;95475.72;;;29.38;39.62
78835;BME280;68187;42.682;23.352;2023-06-22T11:30:11;95478.56;;;29.52;40.50
78835;BME280;68187;42.682;23.352;2023-06-22T11:32:38;95475.56;;;29.68;38.99
78835;BME280;68187;42.682;23.352;2023-06-22T11:35:05;95468.81;;;29.51;39.63
78835;BME280;68187;42.682;23.352;2023-06-22T11:37:32;95468.28;;;29.35;39.01
78835;BME280;68187;42.682;23.352;2023-06-22T11:39:59;95472.34;;;29.12;39.69
78835;BME280;68187;42.682;23.352;2023-06-22T11:42:25;95475.94;;;28.86;40.06
78835;BME280;68187;42.682;23.352;2023-06-22T11:44:55;95480.38;;;28.64;39.66
78835;BME280;68187;42.682;23.352;2023-06-22T11:47:21;95476.50;;;28.65;41.34
78835;BME280;68187;42.682;23.352;2023-06-22T11:49:48;95472.00;;;28.80;43.01
78835;BME280;68187;42.682;23.352;2023-06-22T11:52:15;95452.28;;;28.90;41.10
78835;BME280;68187;42.682;23.352;2023-06-22T11:54:43;95441.78;;;28.88;42.14
78835;BME280;68187;42.682;23.352;2023-06-22T11:57:11;95459.47;;;29.09;42.58
78835;BME280;68187;42.682;23.352;2023-06-22T11:59:38;95461.78;;;29.07;42.27
78835;BME280;68187;42.682;23.352;2023-06-22T12:02:06;95461.31;;;28.98;42.08
78835;BME280;68187;42.682;23.352;2023-06-22T12:04:34;95464.28;;;28.85;41.61
78835;BME280;68187;42.682;23.352;2023-06-22T12:07:01;95465.72;;;28.76;40.91
78835;BME280;68187;42.682;23.352;2023-06-22T12:09:27;95462.91;;;28.65;41.66
78835;BME280;68187;42.682;23.352;2023-06-22T12:11:54;95464.97;;;28.46;40.55
78835;BME280;68187;42.682;23.352;2023-06-22T12:14:21;95468.59;;;28.23;41.76
78835;BME280;68187;42.682;23.352;2023-06-22T12:16:48;95482.78;;;28.10;45.37
78835;BME280;68187;42.682;23.352;2023-06-22T12:19:16;95471.19;;;27.90;47.97
78835;BME280;68187;42.682;23.352;2023-06-22T12:21:43;95490.25;;;27.68;49.64
78835;BME280;68187;42.682;23.352;2023-06-22T12:24:11;95488.75;;;27.47;44.26
78835;BME280;68187;42.682;23.352;2023-06-22T12:26:38;95499.84;;;27.16;47.16
78835;BME280;68187;42.682;23.352;2023-06-22T12:29:04;95505.09;;;26.86;47.48
78835;BME280;68187;42.682;23.352;2023-06-22T12:31:31;95487.78;;;26.53;45.92
78835;BME280;68187;42.682;23.352;2023-06-22T12:33:58;95519.06;;;26.50;49.73
78835;BME280;68187;42.682;23.352;2023-06-22T12:36:26;95524.88;;;26.33;49.11
78835;BME280;68187;42.682;23.352;2023-06-22T12:38:53;95529.72;;;26.24;49.82
78835;BME280;68187;42.682;23.352;2023-06-22T12:41:19;95544.31;;;26.04;51.08
78835;BME280;68187;42.682;23.352;2023-06-22T12:43:46;95539.47;;;25.94;51.69
78835;BME280;68187;42.682;23.352;2023-06-22T12:46:13;95522.38;;;25.74;52.38
78835;BME280;68187;42.682;23.352;2023-06-22T12:48:40;95518.63;;;25.63;53.49
78835;BME280;68187;42.682;23.352;2023-06-22T12:51:08;95522.75;;;25.57;53.76
78835;BME280;68187;42.682;23.352;2023-06-22T12:53:36;95543.41;;;25.49;54.77